• Join FlightAware (Why Join?)
  • Login
  • US Flag 
08:23AM EDT


 

Airport Tracker/Info


-or-


 

Live Flight TrackerFlight Track Log ✈ SKW5504 ✈ 15-Jul-2013 ✈ KSFO - KMFR

Flight Track Log - Related Links

Times and Time Zones

All times are in EDT time to prevent confusion due to time zone crossing. See the SKW5504 flight status page for this flight to view local times or setup timezone preferences in your user account.

Time Position Orientation Groundspeed Altitude Reporting Facility
EDT Latitude Longitude Course Direction KTS MPH feet Rate Location/Type
04:04PM 37.6667 -122.3667 North 165 190 1,800  Level Northern Cal TRACON
04:05PM 37.7328 -122.3586 North 191 220 4,100 1,620 Climbing Oakland Center
04:06PM 37.7986 -122.3719 351° North 200 230 6,000 1,620 Climbing Oakland Center
04:07PM 37.9092 -122.3753 345° North  Level FlightAware Approximate
04:07PM 37.8589 -122.3803 354° North 213 245 7,400  Level Oakland Center
04:08PM 37.9776 -122.3667 North  Level FlightAware Approximate
04:08PM 37.9214 -122.3833 358° North 224 258 9,000  Level Oakland Center
04:09PM 38.0497 -122.3667 North  Level FlightAware Approximate
04:09PM 37.9839 -122.3828 360° North 227 261 10,500  Level Oakland Center
04:10PM 38.0481 -122.3781 North 233 268 11,800 1,260 Climbing Oakland Center
04:11PM 38.1150 -122.3753 North 241 277 13,100 1,080 Climbing Oakland Center
04:12PM 38.1850 -122.3728 North 254 292 14,000 1,020 Climbing Oakland Center
04:14PM 38.2694 -122.3653 North 255 293 15,300 1,080 Climbing Oakland Center
04:15PM 38.3417 -122.3581 North 260 299 16,300 960 Climbing Oakland Center
04:16PM 38.4131 -122.3517 North 258 297 17,300 1,020 Climbing Oakland Center
04:17PM 38.4869 -122.3450 North 265 305 18,400 960 Climbing Oakland Center
04:18PM 38.5611 -122.3394 North 268 308 19,300 840 Climbing Oakland Center
04:19PM 38.6350 -122.3322 North 268 308 20,200 780 Climbing Oakland Center
04:20PM 38.7211 -122.3314 360° North 272 313 21,000 780 Climbing Oakland Center
04:21PM 38.7972 -122.3472 351° North 276 318 21,800 480 Climbing Oakland Center
04:22PM 38.8758 -122.3589 353° North 282 325 22,000 60 Climbing Oakland Center
04:23PM 38.9586 -122.3706 354° North 297 342 22,000  Level Oakland Center
04:24PM 39.0439 -122.3836 353° North 304 350 22,000  Level Oakland Center
04:25PM 39.1281 -122.3944 354° North 303 349 22,000  Level Oakland Center
04:26PM 39.2133 -122.4075 353° North 306 352 22,000  Level Oakland Center
04:27PM 39.2983 -122.4206 353° North 306 352 22,000  Level Oakland Center
04:28PM 39.3825 -122.4342 353° North 303 349 22,000  Level Oakland Center
04:29PM 39.4672 -122.4481 353° North 306 352 22,000  Level Oakland Center
04:30PM 39.5586 -122.4597 354° North 308 354 22,000  Level Oakland Center
04:31PM 39.6439 -122.4739 353° North 310 357 22,000  Level Oakland Center
04:32PM 39.7300 -122.4864 354° North 311 358 22,000  Level Oakland Center
04:33PM 39.8328 -122.5011 354° North 310 357 22,000  Level Oakland Center
04:34PM 39.9172 -122.5150 353° North 307 353 22,000  Level Oakland Center
04:35PM 40.0033 -122.5275 354° North 310 357 22,000  Level Oakland Center
04:36PM 40.0892 -122.5417 353° North 308 354 22,000  Level Oakland Center
04:37PM 40.1764 -122.5528 354° North 310 357 22,000  Level Oakland Center
04:38PM 40.2633 -122.5642 354° North 310 357 22,000  Level Oakland Center
04:39PM 40.3494 -122.5769 354° North 309 356 22,000  Level Oakland Center
04:40PM 40.4364 -122.5894 354° North 311 358 22,000  Level Oakland Center
04:41PM 40.5222 -122.6017 354° North 310 357 22,000  Level Oakland Center
04:42PM 40.6086 -122.6136 354° North 312 359 22,000  Level Oakland Center
04:43PM 40.6961 -122.6269 353° North 316 364 22,000  Level Oakland Center
04:44PM 40.7828 -122.6392 354° North 313 360 22,000  Level Oakland Center
04:45PM 40.8878 -122.6542 354° North 317 365 22,000  Level Oakland Center
04:46PM 40.9747 -122.6669 354° North 315 362 22,000  Level Oakland Center
04:47PM 41.0611 -122.6786 354° North 313 360 22,000  Level Oakland Center
04:48PM 41.1475 -122.6914 354° North 312 359 22,000  Level Oakland Center
04:49PM 41.2342 -122.7053 353° North 315 362 22,000  Level Oakland Center
04:50PM 41.3208 -122.7169 354° North 314 361 22,000  Level Oakland Center
04:51PM 41.4169 -122.7311 354° North 312 359 22,000  Level Oakland Center
04:52PM 41.5014 -122.7431 354° North 310 357 22,000 -300 Level Oakland Center
04:53PM 41.5894 -122.7536 355° North 315 362 21,400 -900 Descending Oakland Center
04:54PM 41.6817 -122.7681 353° North 326 375 20,200 -1,440 Descending Oakland Center
04:55PM 41.7767 -122.7828 353° North 337 388 18,500 -1,860 Descending Oakland Center
04:57PM 41.8703 -122.7953 354° North 338 389 16,400 -2,160 Descending Oakland Center
04:58PM 41.9558 -122.8083 354° North 321 369 14,100 -2,100 Descending Oakland Center
04:59PM 42.0347 -122.8217 353° North 298 343 12,100 -2,100 Descending Oakland Center
05:00PM 42.1272 -122.8342 354° North 283 326 9,900 -2,040 Descending Oakland Center
05:01PM 42.1894 -122.8031 20° North 256 295 8,000 -2,100 Descending Oakland Center
05:02PM 42.2419 -122.7797 18° North 238 274 5,600 -2,400 Descending Oakland Center